createdAt,value
2017-06-20T00:00:45.299Z,8.23
2017-06-20T00:03:13.698Z,7.43
2017-06-20T00:05:42.063Z,7.43
2017-06-20T00:08:10.535Z,8.27
2017-06-20T00:10:38.910Z,7.00
2017-06-20T00:13:07.331Z,6.73
2017-06-20T00:15:35.749Z,8.40
2017-06-20T00:18:04.191Z,8.10
2017-06-20T00:20:32.572Z,8.13
2017-06-20T00:23:01.041Z,7.50
2017-06-20T00:25:29.411Z,7.77
2017-06-20T00:27:57.791Z,8.23
2017-06-20T00:30:26.286Z,8.43
2017-06-20T00:32:54.676Z,8.10
2017-06-20T00:35:23.078Z,8.23
2017-06-20T00:37:51.475Z,8.13
2017-06-20T00:40:19.973Z,7.93
2017-06-20T00:42:48.454Z,7.83
2017-06-20T00:45:16.848Z,7.20
2017-06-20T00:47:45.248Z,7.27
2017-06-20T00:50:13.717Z,7.60
2017-06-20T00:52:42.278Z,8.17
2017-06-20T00:55:10.667Z,8.27
2017-06-20T00:57:39.073Z,7.27
2017-06-20T01:00:07.731Z,8.67
2017-06-20T01:02:36.138Z,7.77
2017-06-20T01:05:04.516Z,7.60
2017-06-20T01:07:32.917Z,9.00
2017-06-20T01:10:01.333Z,7.73
2017-06-20T01:12:29.704Z,8.33
2017-06-20T01:14:58.871Z,7.70
2017-06-20T01:17:27.237Z,8.53
2017-06-20T01:19:55.611Z,8.07
2017-06-20T01:22:24.156Z,8.37
2017-06-20T01:24:52.736Z,8.57
2017-06-20T01:27:21.217Z,8.27
2017-06-20T01:29:49.637Z,8.63
2017-06-20T01:32:18.078Z,8.50
2017-06-20T01:34:46.460Z,10.43
2017-06-20T01:37:14.893Z,10.10
2017-06-20T01:39:44.046Z,8.97
2017-06-20T01:42:12.420Z,8.50
2017-06-20T01:44:40.829Z,9.10
2017-06-20T01:47:09.208Z,9.27
2017-06-20T01:49:37.665Z,10.03
2017-06-20T01:52:06.088Z,8.27
2017-06-20T01:54:34.447Z,9.00
2017-06-20T01:57:02.844Z,8.53
2017-06-20T01:59:31.272Z,8.80
2017-06-20T02:01:59.650Z,8.80
2017-06-20T02:04:28.040Z,9.30
2017-06-20T02:06:56.463Z,8.80
2017-06-20T02:09:24.832Z,9.23
2017-06-20T02:11:53.244Z,9.57
2017-06-20T02:14:21.623Z,7.97
2017-06-20T02:16:50.040Z,9.17
2017-06-20T02:19:18.416Z,8.50
2017-06-20T02:21:46.800Z,8.70
2017-06-20T02:24:15.228Z,8.67
2017-06-20T02:26:44.371Z,9.07
2017-06-20T02:29:12.756Z,8.10
2017-06-20T02:31:41.156Z,8.57
2017-06-20T02:34:09.540Z,8.60
2017-06-20T02:36:37.935Z,8.43
2017-06-20T02:39:06.321Z,7.83
2017-06-20T02:41:35.468Z,7.60
2017-06-20T02:44:03.876Z,9.70
2017-06-20T02:46:32.267Z,8.33
2017-06-20T02:49:00.664Z,8.00
2017-06-20T02:51:29.055Z,7.97
2017-06-20T02:53:57.454Z,8.77
2017-06-20T02:56:25.822Z,7.77
2017-06-20T02:58:54.306Z,8.70
2017-06-20T03:01:22.669Z,8.53
2017-06-20T03:03:51.073Z,8.10
2017-06-20T03:06:19.567Z,7.90
2017-06-20T03:08:47.956Z,8.00
2017-06-20T03:11:16.349Z,8.20
2017-06-20T03:13:44.782Z,9.37
2017-06-20T03:16:13.161Z,8.50
2017-06-20T03:18:41.596Z,8.60
2017-06-20T03:21:10.089Z,7.90
2017-06-20T03:23:38.477Z,8.70
2017-06-20T03:26:06.885Z,8.40
2017-06-20T03:28:35.364Z,8.33
2017-06-20T03:31:03.842Z,7.77
2017-06-20T03:33:32.240Z,8.10
2017-06-20T03:36:00.702Z,8.20
2017-06-20T03:38:29.187Z,8.40
2017-06-20T03:40:57.665Z,8.00
2017-06-20T03:43:26.055Z,8.30
2017-06-20T03:45:54.453Z,7.60
2017-06-20T03:48:22.833Z,8.10
2017-06-20T03:50:51.353Z,8.40
2017-06-20T03:53:19.776Z,8.07
2017-06-20T03:55:48.144Z,7.70
2017-06-20T03:58:16.588Z,8.70
2017-06-20T04:00:45.048Z,8.40
2017-06-20T04:03:13.440Z,8.83
2017-06-20T04:05:41.856Z,8.97
2017-06-20T04:08:10.256Z,7.53
2017-06-20T04:10:38.722Z,7.83
2017-06-20T04:13:07.209Z,8.27
2017-06-20T04:15:35.586Z,7.97
2017-06-20T04:18:03.969Z,8.30
2017-06-20T04:20:32.377Z,8.37
2017-06-20T04:23:00.765Z,8.70
2017-06-20T04:25:29.169Z,8.47
2017-06-20T04:27:57.592Z,8.60
2017-06-20T04:30:26.062Z,8.40
2017-06-20T04:32:54.485Z,9.73
2017-06-20T04:35:23.063Z,8.73
2017-06-20T04:37:51.446Z,9.77
2017-06-20T04:40:19.837Z,9.97
2017-06-20T04:42:48.248Z,10.60
2017-06-20T04:45:16.640Z,9.03
2017-06-20T04:47:45.072Z,9.40
2017-06-20T04:50:13.549Z,9.10
2017-06-20T04:52:41.968Z,10.20
2017-06-20T04:55:10.364Z,9.40
2017-06-20T04:57:38.788Z,9.13
2017-06-20T05:00:07.262Z,9.30
2017-06-20T05:02:35.689Z,8.37
2017-06-20T05:05:04.128Z,9.30
2017-06-20T05:07:32.556Z,8.90
2017-06-20T05:10:01.799Z,9.97
2017-06-20T05:12:30.403Z,9.23
2017-06-20T05:14:58.843Z,10.10
2017-06-20T05:17:27.280Z,9.10
2017-06-20T05:19:55.725Z,9.57
2017-06-20T05:22:25.008Z,10.20
2017-06-20T05:24:53.463Z,8.63
2017-06-20T05:27:21.888Z,11.13
2017-06-20T05:29:50.265Z,8.70
2017-06-20T05:32:18.655Z,9.03
2017-06-20T05:34:47.053Z,8.50
2017-06-20T05:37:15.571Z,8.87
2017-06-20T05:39:43.978Z,8.90
2017-06-20T05:42:13.286Z,8.50
2017-06-20T05:44:41.668Z,8.40
2017-06-20T05:47:10.052Z,8.60
2017-06-20T05:49:38.472Z,9.73
2017-06-20T05:52:07.006Z,7.80
2017-06-20T05:54:36.151Z,8.17
2017-06-20T05:57:04.751Z,8.20
2017-06-20T05:59:33.112Z,7.13
2017-06-20T06:02:01.491Z,7.70
2017-06-20T06:04:29.929Z,7.77
2017-06-20T06:06:59.073Z,8.07
2017-06-20T06:09:27.456Z,8.57
2017-06-20T06:11:55.860Z,7.70
2017-06-20T06:14:25.012Z,8.23
2017-06-20T06:16:53.476Z,8.17
2017-06-20T06:19:22.141Z,7.40
2017-06-20T06:21:50.521Z,7.93
2017-06-20T06:24:18.900Z,7.40
2017-06-20T06:26:48.200Z,8.30
2017-06-20T06:29:16.589Z,9.73
2017-06-20T06:31:44.993Z,9.97
2017-06-20T06:34:13.573Z,10.33
2017-06-20T06:36:41.983Z,10.53
2017-06-20T06:39:10.378Z,11.30
2017-06-20T06:41:39.600Z,10.70
2017-06-20T06:44:07.988Z,10.50
2017-06-20T06:46:36.391Z,9.83
2017-06-20T06:49:04.844Z,12.90
2017-06-20T06:51:33.220Z,9.60
2017-06-20T06:54:15.306Z,11.60
2017-06-20T06:56:43.710Z,15.37
2017-06-20T06:59:12.131Z,17.97
2017-06-20T07:01:40.596Z,17.43
2017-06-20T07:04:09.020Z,19.20
2017-06-20T07:06:37.424Z,19.87
2017-06-20T07:09:05.896Z,22.03
2017-06-20T07:11:34.279Z,21.60
2017-06-20T07:14:02.714Z,19.30
2017-06-20T07:16:31.160Z,18.80
2017-06-20T07:18:59.603Z,18.93
2017-06-20T07:21:28.875Z,19.47
2017-06-20T07:23:57.332Z,18.80
2017-06-20T07:26:25.880Z,16.13
2017-06-20T07:28:54.269Z,18.23
2017-06-20T07:31:22.845Z,16.80
2017-06-20T07:33:51.240Z,15.57
2017-06-20T07:36:19.656Z,15.63
2017-06-20T07:38:48.092Z,15.80
2017-06-20T07:41:16.529Z,14.80
2017-06-20T07:43:44.961Z,15.83
2017-06-20T07:46:13.391Z,17.03
2017-06-20T07:48:41.781Z,16.30
2017-06-20T07:51:10.955Z,16.07
2017-06-20T07:53:39.451Z,17.70
2017-06-20T07:56:08.608Z,18.57
2017-06-20T07:58:37.013Z,17.23
2017-06-20T08:01:05.464Z,15.93
2017-06-20T08:03:33.893Z,16.67
2017-06-20T08:09:02.798Z,16.07
2017-06-20T08:11:32.333Z,14.90
2017-06-20T08:14:00.727Z,14.60
2017-06-20T08:16:29.180Z,17.27
2017-06-20T08:18:57.647Z,14.67
2017-06-20T08:21:32.438Z,17.33
2017-06-20T08:24:00.893Z,16.77
2017-06-20T08:26:29.331Z,15.30
2017-06-20T08:28:57.752Z,14.83
2017-06-20T08:31:26.433Z,16.47
2017-06-20T08:33:54.836Z,17.67
2017-06-20T08:36:23.324Z,16.77
2017-06-20T08:38:51.861Z,16.03
2017-06-20T08:41:20.905Z,14.27
2017-06-20T08:43:49.406Z,15.37
2017-06-20T08:46:17.972Z,14.20
2017-06-20T08:48:46.367Z,12.60
2017-06-20T08:51:14.901Z,15.40
2017-06-20T08:53:43.480Z,15.30
2017-06-20T08:56:11.921Z,17.47
2017-06-20T08:58:40.369Z,19.60
2017-06-20T09:01:08.825Z,19.90
2017-06-20T09:03:37.303Z,18.30
2017-06-20T09:06:05.709Z,22.93
2017-06-20T09:08:34.169Z,22.50
2017-06-20T09:11:02.644Z,24.07
2017-06-20T09:13:31.050Z,23.10
2017-06-20T09:15:59.469Z,22.47
2017-06-20T09:18:28.672Z,21.80
2017-06-20T09:20:57.943Z,21.97
2017-06-20T09:23:26.339Z,20.37
2017-06-20T09:25:54.788Z,25.47
2017-06-20T09:28:23.272Z,21.70
2017-06-20T09:30:51.689Z,22.73
2017-06-20T09:33:20.870Z,21.60
2017-06-20T09:35:49.316Z,22.67
2017-06-20T09:38:17.749Z,20.00
2017-06-20T09:40:46.140Z,18.20
2017-06-20T09:43:20.082Z,17.60
2017-06-20T09:45:48.533Z,17.97
2017-06-20T09:48:16.988Z,16.13
2017-06-20T09:50:45.533Z,16.00
2017-06-20T09:53:14.860Z,16.63
2017-06-20T09:55:43.450Z,15.83
2017-06-20T09:58:15.154Z,13.50
2017-06-20T10:00:43.564Z,17.83
2017-06-20T10:03:11.948Z,16.83
2017-06-20T10:05:41.528Z,16.30
2017-06-20T10:08:09.952Z,16.67
2017-06-20T10:10:39.134Z,15.10
2017-06-20T10:13:07.990Z,15.70
2017-06-20T10:15:36.428Z,17.47
2017-06-20T10:18:04.934Z,18.03
2017-06-20T10:20:33.351Z,16.13
2017-06-20T10:23:01.793Z,15.10
2017-06-20T10:25:30.302Z,13.30
2017-06-20T10:27:58.762Z,16.00
2017-06-20T10:30:27.167Z,16.63
2017-06-20T10:32:55.640Z,15.50
2017-06-20T10:35:24.283Z,14.10
2017-06-20T10:37:53.585Z,13.40
2017-06-20T10:40:22.889Z,12.67
2017-06-20T10:42:51.337Z,11.03
2017-06-20T10:45:19.782Z,14.43
2017-06-20T10:47:48.260Z,13.80
2017-06-20T10:50:17.436Z,12.80
2017-06-20T10:52:45.849Z,13.90
2017-06-20T10:55:14.391Z,14.60
2017-06-20T10:57:42.836Z,11.60
2017-06-20T11:00:11.254Z,11.10
2017-06-20T11:02:40.479Z,10.90
2017-06-20T11:05:09.057Z,12.10
2017-06-20T11:07:37.466Z,10.73
2017-06-20T11:10:05.969Z,9.30
2017-06-20T11:12:34.428Z,10.10
2017-06-20T11:15:02.813Z,9.10
2017-06-20T11:17:31.287Z,9.10
2017-06-20T11:19:59.724Z,9.07
2017-06-20T11:22:28.921Z,9.17
2017-06-20T11:24:57.385Z,10.40
2017-06-20T11:27:26.676Z,10.30
2017-06-20T11:29:55.102Z,9.17
2017-06-20T11:32:23.570Z,12.20
2017-06-20T11:34:51.976Z,11.37
2017-06-20T11:37:20.393Z,12.57
2017-06-20T11:39:49.028Z,11.90
2017-06-20T11:42:17.460Z,11.03
2017-06-20T11:44:46.088Z,10.83
2017-06-20T11:47:14.525Z,12.40
2017-06-20T11:49:42.992Z,10.80
2017-06-20T11:52:11.407Z,13.60
2017-06-20T11:54:40.636Z,11.47
2017-06-20T11:57:09.114Z,11.47
2017-06-20T11:59:37.570Z,10.57
2017-06-20T12:02:05.978Z,10.40
2017-06-20T12:04:34.660Z,10.23
2017-06-20T12:07:03.139Z,9.20
2017-06-20T12:09:31.549Z,9.03
2017-06-20T12:12:00.071Z,9.20
2017-06-20T12:14:28.485Z,8.20
2017-06-20T12:16:57.002Z,8.00
2017-06-20T12:19:26.204Z,8.40
2017-06-20T12:21:54.637Z,7.73
2017-06-20T12:24:23.015Z,8.20
2017-06-20T12:26:51.545Z,8.03
2017-06-20T12:29:19.985Z,7.43
2017-06-20T12:31:48.397Z,8.30
2017-06-20T12:34:16.804Z,9.10
2017-06-20T12:36:45.218Z,9.40
2017-06-20T12:39:13.635Z,9.40
2017-06-20T12:41:42.193Z,9.33
2017-06-20T12:44:10.736Z,9.70
2017-06-20T12:46:39.866Z,9.70
2017-06-20T12:49:08.429Z,9.20
2017-06-20T12:51:36.865Z,7.90
2017-06-20T12:54:05.329Z,7.13
2017-06-20T12:56:33.772Z,7.03
2017-06-20T12:59:02.239Z,6.93
2017-06-20T13:01:31.394Z,7.50
2017-06-20T13:03:59.902Z,6.10
2017-06-20T13:06:28.347Z,7.40
2017-06-20T13:08:56.734Z,6.63
2017-06-20T13:11:25.196Z,7.50
2017-06-20T13:13:54.384Z,8.03
2017-06-20T13:16:22.844Z,6.80
2017-06-20T13:18:51.363Z,6.53
2017-06-20T13:21:19.764Z,6.10
2017-06-20T13:23:48.168Z,6.63
2017-06-20T13:26:16.740Z,7.40
2017-06-20T13:28:45.228Z,6.70
2017-06-20T13:31:14.396Z,6.30
2017-06-20T13:33:42.860Z,6.93
2017-06-20T13:36:11.418Z,6.50
2017-06-20T13:38:39.812Z,5.80
2017-06-20T13:41:08.464Z,5.67
2017-06-20T13:43:37.764Z,6.20
2017-06-20T13:46:06.147Z,5.90
2017-06-20T13:48:34.832Z,6.20
2017-06-20T13:51:03.978Z,6.63
2017-06-20T13:53:32.381Z,6.20
2017-06-20T13:56:01.619Z,6.20
2017-06-20T13:58:30.004Z,6.23
2017-06-20T14:00:58.464Z,6.00
2017-06-20T14:03:26.989Z,6.27
2017-06-20T14:05:55.404Z,6.33
2017-06-20T14:08:24.752Z,7.00
2017-06-20T14:10:53.336Z,7.37
2017-06-20T14:13:21.727Z,7.40
2017-06-20T14:15:50.131Z,5.27
2017-06-20T14:18:18.567Z,7.23
2017-06-20T14:20:50.868Z,6.03
2017-06-20T14:23:19.401Z,6.47
2017-06-20T14:25:48.701Z,6.10
2017-06-20T14:28:17.125Z,6.10
2017-06-20T14:30:45.635Z,5.60
2017-06-20T14:33:14.084Z,5.50
2017-06-20T14:35:42.473Z,5.90
2017-06-20T14:38:10.948Z,5.73
2017-06-20T14:40:39.349Z,5.93
2017-06-20T14:43:07.825Z,7.17
2017-06-20T14:45:36.356Z,6.20
2017-06-20T14:48:04.840Z,6.20
2017-06-20T14:50:33.319Z,6.00
2017-06-20T14:53:01.917Z,8.13
2017-06-20T14:55:30.675Z,6.33
2017-06-20T14:57:59.099Z,7.73
2017-06-20T15:00:27.760Z,8.23
2017-06-20T15:02:56.242Z,6.40
2017-06-20T15:05:24.714Z,6.33
2017-06-20T15:07:53.332Z,6.00
2017-06-20T15:10:21.753Z,7.50
2017-06-20T15:12:50.202Z,7.80
2017-06-20T15:15:18.649Z,8.33
2017-06-20T15:17:47.069Z,7.57
2017-06-20T15:20:15.490Z,8.10
2017-06-20T15:22:44.761Z,8.37
2017-06-20T15:25:13.185Z,7.47
2017-06-20T15:27:41.600Z,9.43
2017-06-20T15:30:10.073Z,7.50
2017-06-20T15:32:38.498Z,8.20
2017-06-20T15:35:06.902Z,9.13
2017-06-20T15:37:35.368Z,9.00
2017-06-20T15:40:03.859Z,8.80
2017-06-20T15:42:32.294Z,8.70
2017-06-20T15:45:01.901Z,8.43
2017-06-20T15:47:31.145Z,8.60
2017-06-20T15:49:59.543Z,7.50
2017-06-20T15:52:28.034Z,8.80
2017-06-20T15:54:56.434Z,7.63
2017-06-20T15:57:24.836Z,9.67
2017-06-20T15:59:54.266Z,9.80
2017-06-20T16:02:22.710Z,8.63
2017-06-20T16:04:51.209Z,7.10
2017-06-20T16:07:20.487Z,7.63
2017-06-20T16:09:48.897Z,9.13
2017-06-20T16:12:17.565Z,9.90
2017-06-20T16:14:46.857Z,8.83
2017-06-20T16:17:15.900Z,8.70
2017-06-20T16:19:44.325Z,9.10
2017-06-20T16:22:12.878Z,9.20
2017-06-20T16:24:41.313Z,9.53
2017-06-20T16:27:10.553Z,9.30
2017-06-20T16:29:39.132Z,8.77
2017-06-20T16:32:07.810Z,8.17
2017-06-20T16:34:36.322Z,9.57
2017-06-20T16:37:04.865Z,8.10
2017-06-20T16:39:33.460Z,10.40
2017-06-20T16:42:01.931Z,8.33
2017-06-20T16:44:31.995Z,8.67
2017-06-20T16:47:00.438Z,8.90
2017-06-20T16:49:28.871Z,8.90
2017-06-20T16:51:58.119Z,8.20
2017-06-20T16:54:26.599Z,9.30
2017-06-20T16:56:55.143Z,8.93
2017-06-20T16:59:24.513Z,8.03
2017-06-20T17:01:52.960Z,8.60
2017-06-20T17:04:21.435Z,9.00
2017-06-20T17:06:49.892Z,8.30
2017-06-20T17:09:18.398Z,8.80
2017-06-20T17:11:46.836Z,8.40
2017-06-20T17:14:15.504Z,7.80
2017-06-20T17:16:43.894Z,8.10
2017-06-20T17:19:12.403Z,7.43
2017-06-20T17:21:42.203Z,7.70
2017-06-20T17:24:11.386Z,7.80
2017-06-20T17:26:39.933Z,7.47
2017-06-20T17:29:08.398Z,7.27
2017-06-20T17:31:36.879Z,7.53
2017-06-20T17:34:05.461Z,7.60
2017-06-20T17:36:34.252Z,6.17
2017-06-20T17:39:03.489Z,6.87
2017-06-20T17:41:32.670Z,7.70
2017-06-20T17:44:04.223Z,7.20
2017-06-20T17:46:32.686Z,7.23
2017-06-20T17:49:01.066Z,6.90
2017-06-20T17:51:29.580Z,6.80
2017-06-20T17:53:58.079Z,6.10
2017-06-20T17:56:26.491Z,6.00
2017-06-20T17:58:55.686Z,5.23
2017-06-20T18:01:24.206Z,5.70
2017-06-20T18:03:52.775Z,5.17
2017-06-20T18:06:21.269Z,5.53
2017-06-20T18:08:49.693Z,4.90
2017-06-20T18:11:18.924Z,5.00
2017-06-20T18:13:47.428Z,4.23
2017-06-20T18:16:15.913Z,4.90
2017-06-20T18:18:44.414Z,4.10
2017-06-20T18:21:12.873Z,5.30
2017-06-20T18:23:42.864Z,4.60
2017-06-20T18:26:11.335Z,5.10
2017-06-20T18:28:39.959Z,5.10
2017-06-20T18:31:08.387Z,4.63
2017-06-20T18:33:36.858Z,4.33
2017-06-20T18:36:06.241Z,4.47
2017-06-20T18:38:34.664Z,4.67
2017-06-20T18:41:03.072Z,3.67
2017-06-20T18:43:31.546Z,4.83
2017-06-20T18:45:59.951Z,4.20
2017-06-20T18:48:28.398Z,4.67
2017-06-20T18:50:56.858Z,4.50
2017-06-20T18:53:26.154Z,4.93
2017-06-20T18:55:55.478Z,4.90
2017-06-20T18:58:24.007Z,4.53
2017-06-20T19:00:52.439Z,4.60
2017-06-20T19:03:20.825Z,4.73
2017-06-20T19:05:49.326Z,4.63
2017-06-20T19:08:17.887Z,4.73
2017-06-20T19:10:46.472Z,5.53
2017-06-20T19:13:14.937Z,4.90
2017-06-20T19:15:44.206Z,3.80
2017-06-20T19:18:12.711Z,4.90
2017-06-20T19:20:41.318Z,3.23
2017-06-20T19:23:10.493Z,4.23
2017-06-20T19:25:39.057Z,3.70
2017-06-20T19:28:07.517Z,4.07
2017-06-20T19:30:36.135Z,4.20
2017-06-20T19:33:05.359Z,3.80
2017-06-20T19:35:33.846Z,4.10
2017-06-20T19:38:02.512Z,3.33
2017-06-20T19:40:31.717Z,3.00
2017-06-20T19:43:00.172Z,3.60
2017-06-20T19:45:29.431Z,3.33
2017-06-20T19:47:57.893Z,3.10
2017-06-20T19:50:26.423Z,3.20
2017-06-20T19:52:54.963Z,3.53
2017-06-20T19:55:23.404Z,3.20
2017-06-20T19:57:51.894Z,2.83
2017-06-20T20:00:20.362Z,2.40
2017-06-20T20:02:48.779Z,2.90
2017-06-20T20:05:17.461Z,3.60
2017-06-20T20:07:46.700Z,2.20
2017-06-20T20:10:15.213Z,2.63
2017-06-20T20:12:43.684Z,3.40
2017-06-20T20:15:12.120Z,2.70
2017-06-20T20:17:40.833Z,3.13
2017-06-20T20:20:21.864Z,2.70
2017-06-20T20:22:51.209Z,3.03
2017-06-20T20:25:19.711Z,2.30
2017-06-20T20:27:48.153Z,2.23
2017-06-20T20:30:17.416Z,2.60
2017-06-20T20:32:46.602Z,2.43
2017-06-20T20:35:15.099Z,2.23
2017-06-20T20:37:44.413Z,1.90
2017-06-20T20:40:12.845Z,2.57
2017-06-20T20:42:42.044Z,2.10
2017-06-20T20:45:10.664Z,2.00
2017-06-20T20:47:39.628Z,2.20
2017-06-20T20:50:08.850Z,2.50
2017-06-20T20:52:37.402Z,2.30
2017-06-20T20:55:05.819Z,2.00
2017-06-20T20:57:34.268Z,1.50
2017-06-20T21:00:02.746Z,2.50
2017-06-20T21:02:31.164Z,2.63
2017-06-20T21:05:00.331Z,2.13
2017-06-20T21:07:29.048Z,2.10
2017-06-20T21:09:57.662Z,1.90
2017-06-20T21:12:26.113Z,2.50
2017-06-20T21:14:55.361Z,1.90
2017-06-20T21:17:23.789Z,2.00
2017-06-20T21:19:52.349Z,2.30
2017-06-20T21:22:21.773Z,2.00
2017-06-20T21:24:50.192Z,2.00
2017-06-20T21:27:18.664Z,2.13
2017-06-20T21:29:47.160Z,2.10
2017-06-20T21:32:15.574Z,2.03
2017-06-20T21:34:44.075Z,2.37
2017-06-20T21:37:12.669Z,1.87
2017-06-20T21:39:41.148Z,1.90
2017-06-20T21:42:09.679Z,1.53
2017-06-20T21:44:38.933Z,2.17
2017-06-20T21:47:07.344Z,2.03
2017-06-20T21:49:35.790Z,2.40
2017-06-20T21:52:05.011Z,2.67
2017-06-20T21:54:33.670Z,2.10
2017-06-20T21:57:02.831Z,1.90
2017-06-20T21:59:32.041Z,2.10
2017-06-20T22:02:00.859Z,2.57
2017-06-20T22:04:30.017Z,2.80
2017-06-20T22:06:58.537Z,2.50
2017-06-20T22:09:26.956Z,2.53
2017-06-20T22:11:55.498Z,2.40
2017-06-20T22:14:23.960Z,2.17
2017-06-20T22:16:52.425Z,1.87
2017-06-20T22:19:20.838Z,3.37
2017-06-20T22:21:49.248Z,2.50
2017-06-20T22:24:17.673Z,2.50
2017-06-20T22:26:46.098Z,2.47
2017-06-20T22:29:14.691Z,2.33
2017-06-20T22:31:43.143Z,2.17
2017-06-20T22:34:11.662Z,2.67
2017-06-20T22:36:40.108Z,1.93
2017-06-20T22:39:08.530Z,1.90
2017-06-20T22:41:36.967Z,2.30
2017-06-20T22:44:05.419Z,2.10
2017-06-20T22:46:33.864Z,2.33
2017-06-20T22:49:02.320Z,2.70
2017-06-20T22:51:30.720Z,1.80
2017-06-20T22:53:59.109Z,1.87
2017-06-20T22:56:27.751Z,2.07
2017-06-20T22:58:56.177Z,2.30
2017-06-20T23:01:24.571Z,1.77
2017-06-20T23:03:53.016Z,1.63
2017-06-20T23:06:21.448Z,2.70
2017-06-20T23:08:50.712Z,2.13
2017-06-20T23:11:19.146Z,2.27
2017-06-20T23:13:47.565Z,2.47
2017-06-20T23:16:16.015Z,2.77
2017-06-20T23:18:45.209Z,2.50
2017-06-20T23:21:14.334Z,1.97
2017-06-20T23:23:42.736Z,2.23
2017-06-20T23:26:11.266Z,1.93
2017-06-20T23:28:39.658Z,2.03
2017-06-20T23:31:08.029Z,1.90
2017-06-20T23:33:36.830Z,2.10
2017-06-20T23:36:05.217Z,2.17
2017-06-20T23:38:33.597Z,1.73
2017-06-20T23:41:02.367Z,2.20
2017-06-20T23:43:30.743Z,2.20
2017-06-20T23:45:59.140Z,1.80
2017-06-20T23:48:27.590Z,2.73
2017-06-20T23:50:56.025Z,1.80
2017-06-20T23:53:24.427Z,1.93
2017-06-20T23:55:53.608Z,2.10
2017-06-20T23:58:22.209Z,1.80
